createdAt,value
2018-12-20T00:00:23.300Z,72.60
2018-12-20T00:02:55.231Z,72.50
2018-12-20T00:05:36.390Z,72.50
2018-12-20T00:08:08.200Z,72.40
2018-12-20T00:10:56.029Z,72.50
2018-12-20T00:13:27.650Z,72.50
2018-12-20T00:16:08.793Z,72.40
2018-12-20T00:18:40.416Z,72.40
2018-12-20T00:21:25.147Z,72.40
2018-12-20T00:23:56.814Z,72.50
2018-12-20T00:26:38.117Z,72.60
2018-12-20T00:29:09.705Z,72.60
2018-12-20T00:31:51.125Z,72.50
2018-12-20T00:34:22.905Z,72.50
2018-12-20T00:37:04.084Z,72.50
2018-12-20T00:39:35.827Z,72.50
2018-12-20T00:42:17.037Z,72.40
2018-12-20T00:44:48.632Z,72.40
2018-12-20T00:47:33.262Z,72.40
2018-12-20T00:50:05.451Z,72.40
2018-12-20T00:52:46.608Z,72.40
2018-12-20T00:55:18.264Z,72.40
2018-12-20T01:38:01.531Z,72.40
2018-12-20T01:40:33.257Z,72.50
2018-12-20T01:43:14.395Z,72.50
2018-12-20T01:45:46.059Z,72.60
2018-12-20T02:01:46.797Z,72.20
2018-12-20T02:04:18.555Z,72.20
2018-12-20T02:06:59.718Z,72.20
2018-12-20T02:09:31.272Z,72.20
2018-12-20T02:12:12.450Z,72.20
2018-12-20T02:14:44.205Z,72.20
2018-12-20T02:17:25.278Z,72.40
2018-12-20T02:19:57.014Z,72.20
2018-12-20T02:22:41.568Z,72.30
2018-12-20T02:25:12.953Z,72.20
2018-12-20T02:27:54.068Z,72.20
2018-12-20T02:30:26.003Z,72.20
2018-12-20T02:46:29.746Z,72.10
2018-12-20T02:49:01.467Z,72.10
2018-12-20T03:04:49.580Z,72.10
2018-12-20T03:07:20.989Z,72.20
2018-12-20T03:10:06.325Z,72.30
2018-12-20T03:12:38.105Z,72.30
2018-12-20T03:15:22.722Z,72.40
2018-12-20T03:17:54.253Z,72.40
2018-12-20T03:33:58.373Z,72.50
2018-12-20T03:36:29.810Z,72.50
2018-12-20T03:39:14.645Z,72.60
2018-12-20T03:41:46.406Z,72.70
2018-12-20T03:44:31.259Z,72.60
2018-12-20T03:47:02.862Z,72.60
2018-12-20T04:03:16.354Z,72.40
2018-12-20T04:05:47.929Z,72.40
2018-12-20T04:08:29.224Z,72.40
2018-12-20T04:11:25.835Z,72.60
2018-12-20T04:13:57.277Z,72.50
2018-12-20T04:16:42.054Z,72.60
2018-12-20T04:19:13.524Z,72.60
2018-12-20T04:21:59.528Z,72.40
2018-12-20T04:24:31.080Z,72.40
2018-12-20T04:27:21.818Z,72.40
2018-12-20T04:29:53.489Z,72.40
2018-12-20T04:32:38.216Z,72.50
2018-12-20T04:35:09.887Z,72.60
2018-12-20T04:37:51.497Z,72.70
2018-12-20T04:40:23.093Z,72.60
2018-12-20T04:43:04.166Z,72.70
2018-12-20T04:45:36.005Z,72.80
2018-12-20T04:48:17.195Z,72.30
2018-12-20T04:50:49.150Z,72.70
2018-12-20T04:53:33.874Z,72.70
2018-12-20T04:56:05.503Z,72.70
2018-12-20T04:58:47.698Z,72.70
2018-12-20T05:01:19.382Z,72.80
2018-12-20T05:04:04.240Z,72.70
2018-12-20T05:06:35.706Z,72.90
2018-12-20T05:09:17.009Z,72.80
2018-12-20T05:11:48.417Z,72.90
2018-12-20T05:14:33.152Z,72.90
2018-12-20T05:17:04.627Z,73.00
2018-12-20T05:19:45.692Z,73.10
2018-12-20T05:22:17.093Z,73.00
2018-12-20T05:25:01.830Z,73.10
2018-12-20T05:27:33.196Z,73.20
2018-12-20T05:30:17.934Z,73.20
2018-12-20T05:32:49.514Z,73.20
2018-12-20T05:35:30.724Z,73.20
2018-12-20T05:38:02.266Z,74.00
2018-12-20T05:40:43.483Z,73.30
2018-12-20T05:43:15.033Z,73.30
2018-12-20T05:46:04.502Z,73.30
2018-12-20T05:48:33.561Z,73.40
2018-12-20T05:51:15.094Z,73.50
2018-12-20T05:53:46.654Z,73.40
2018-12-20T05:56:31.271Z,73.30
2018-12-20T05:59:02.910Z,73.30
2018-12-20T06:01:44.022Z,73.30
2018-12-20T06:04:15.575Z,73.30
2018-12-20T06:06:56.735Z,73.30
2018-12-20T06:09:28.280Z,73.30
2018-12-20T06:12:12.934Z,73.20
2018-12-20T06:14:44.859Z,73.20
2018-12-20T06:17:29.589Z,73.20
2018-12-20T06:20:01.290Z,73.20
2018-12-20T06:22:43.879Z,73.20
2018-12-20T06:25:15.357Z,73.20
2018-12-20T06:41:00.019Z,73.10
2018-12-20T06:43:31.501Z,73.20
2018-12-20T06:46:20.909Z,73.20
2018-12-20T06:48:46.262Z,73.20
2018-12-20T06:51:27.963Z,73.30
2018-12-20T06:53:59.655Z,73.30
2018-12-20T06:56:50.459Z,73.30
2018-12-20T06:59:21.946Z,73.20
2018-12-20T07:02:03.217Z,73.20
2018-12-20T07:04:34.641Z,73.20
2018-12-20T07:07:15.836Z,73.20
2018-12-20T07:09:47.462Z,73.20
2018-12-20T07:12:40.896Z,73.20
2018-12-20T07:15:12.523Z,73.30
2018-12-20T07:17:57.138Z,73.20
2018-12-20T07:20:28.708Z,73.20
2018-12-20T07:23:10.425Z,73.20
2018-12-20T07:25:41.895Z,73.20
2018-12-20T07:41:51.241Z,72.90
2018-12-20T07:44:22.797Z,72.90
2018-12-20T07:47:10.477Z,73.00
2018-12-20T07:49:42.243Z,73.00
2018-12-20T07:52:26.772Z,73.00
2018-12-20T07:54:58.329Z,72.90
2018-12-20T07:57:39.936Z,72.90
2018-12-20T08:00:11.715Z,72.90
2018-12-20T08:15:53.183Z,72.70
2018-12-20T08:18:24.710Z,72.70
2018-12-20T08:21:09.287Z,72.70
2018-12-20T08:23:40.793Z,72.70
2018-12-20T08:26:25.385Z,72.80
2018-12-20T08:28:56.956Z,72.70
2018-12-20T08:44:38.690Z,72.40
2018-12-20T08:47:10.217Z,72.20
2018-12-20T08:49:54.802Z,72.40
2018-12-20T08:52:26.302Z,72.40
2018-12-20T09:21:10.777Z,72.60
2018-12-20T09:23:42.267Z,72.00
2018-12-20T09:26:27.074Z,72.20
2018-12-20T09:28:58.668Z,72.20
2018-12-20T09:44:41.256Z,71.60
2018-12-20T09:47:17.927Z,71.60
2018-12-20T09:50:06.866Z,71.60
2018-12-20T09:52:38.431Z,71.40
2018-12-20T09:55:32.082Z,71.30
2018-12-20T09:58:03.657Z,71.20
2018-12-20T10:00:47.044Z,71.20
2018-12-20T10:03:18.706Z,71.10
2018-12-20T10:19:14.684Z,70.60
2018-12-20T10:21:46.185Z,70.60
2018-12-20T10:24:34.720Z,70.80
2018-12-20T10:27:06.345Z,70.80
2018-12-20T10:29:47.920Z,70.80
2018-12-20T10:32:19.344Z,70.90
2018-12-20T10:35:04.124Z,70.80
2018-12-20T10:37:35.858Z,70.80
2018-12-20T10:40:30.541Z,70.80
2018-12-20T10:43:01.928Z,70.90
2018-12-20T10:45:43.609Z,71.00
2018-12-20T10:48:15.060Z,71.00
2018-12-20T10:50:56.164Z,70.80
2018-12-20T10:53:30.569Z,70.60
2018-12-20T10:56:12.164Z,70.50
2018-12-20T10:58:43.736Z,70.20
2018-12-20T11:01:30.650Z,70.00
2018-12-20T11:05:09.115Z,69.80
2018-12-20T11:08:02.742Z,69.70
2018-12-20T11:10:34.265Z,69.80
2018-12-20T11:13:26.753Z,69.70
2018-12-20T11:15:58.202Z,69.70
2018-12-20T11:18:43.072Z,70.30
2018-12-20T11:21:14.804Z,69.70
2018-12-20T11:23:56.129Z,69.90
2018-12-20T11:26:28.645Z,69.90
2018-12-20T11:55:24.483Z,69.80
2018-12-20T11:57:56.176Z,69.90
2018-12-20T12:00:37.646Z,70.00
2018-12-20T12:03:10.182Z,70.00
2018-12-20T12:06:04.517Z,69.90
2018-12-20T12:08:36.151Z,69.70
2018-12-20T12:11:17.384Z,69.70
2018-12-20T12:13:48.835Z,69.70
2018-12-20T12:16:33.609Z,69.70
2018-12-20T12:19:05.323Z,69.50
2018-12-20T12:21:50.197Z,69.40
2018-12-20T12:24:21.814Z,69.40
2018-12-20T12:27:06.437Z,69.70
2018-12-20T12:29:37.845Z,69.40
2018-12-20T12:32:25.486Z,69.40
2018-12-20T12:34:56.990Z,69.40
2018-12-20T12:37:44.785Z,69.40
2018-12-20T12:40:16.212Z,69.60
2018-12-20T12:43:00.816Z,69.60
2018-12-20T12:45:32.277Z,69.60
2018-12-20T12:48:13.484Z,69.40
2018-12-20T12:50:44.865Z,70.30
2018-12-20T12:53:32.712Z,69.50
2018-12-20T12:56:04.285Z,69.40
2018-12-20T12:58:45.419Z,69.40
2018-12-20T13:01:16.984Z,69.40
2018-12-20T13:04:01.611Z,69.30
2018-12-20T13:06:33.070Z,69.40
2018-12-20T13:09:17.683Z,69.40
2018-12-20T13:11:49.211Z,69.50
2018-12-20T13:14:36.810Z,69.40
2018-12-20T13:17:08.267Z,69.40
2018-12-20T13:19:49.355Z,69.50
2018-12-20T13:22:20.841Z,69.50
2018-12-20T13:25:02.145Z,69.50
2018-12-20T13:27:33.698Z,69.50
2018-12-20T13:30:16.193Z,69.40
2018-12-20T13:32:49.095Z,69.50
2018-12-20T13:35:47.489Z,69.40
2018-12-20T13:38:19.221Z,69.40
2018-12-20T13:54:01.418Z,69.70
2018-12-20T13:56:33.188Z,70.20
2018-12-20T13:59:14.944Z,69.70
2018-12-20T14:01:46.705Z,69.70
2018-12-20T14:04:31.327Z,69.70
2018-12-20T14:07:03.108Z,69.70
2018-12-20T14:09:50.846Z,69.90
2018-12-20T14:12:22.405Z,69.80
2018-12-20T14:15:09.303Z,69.80
2018-12-20T14:17:40.937Z,70.10
2018-12-20T14:20:25.578Z,69.70
2018-12-20T14:22:57.171Z,69.70
2018-12-20T14:25:50.766Z,69.80
2018-12-20T14:28:22.430Z,69.80
2018-12-20T14:31:12.506Z,69.80
2018-12-20T14:33:44.032Z,69.80
2018-12-20T14:36:28.716Z,69.80
2018-12-20T14:39:00.325Z,69.70
2018-12-20T14:41:41.430Z,69.70
2018-12-20T14:44:12.872Z,69.50
2018-12-20T14:47:00.525Z,69.60
2018-12-20T14:49:31.974Z,69.70
2018-12-20T14:52:13.034Z,70.40
2018-12-20T14:54:44.541Z,70.00
2018-12-20T14:57:26.290Z,70.00
2018-12-20T14:59:57.952Z,70.00
2018-12-20T15:02:42.762Z,70.10
2018-12-20T15:05:14.261Z,70.20
2018-12-20T15:07:58.926Z,70.00
2018-12-20T15:10:30.471Z,70.00
2018-12-20T15:13:12.051Z,70.00
2018-12-20T15:15:43.556Z,70.00
2018-12-20T15:18:28.158Z,70.00
2018-12-20T15:20:59.644Z,70.00
2018-12-20T15:23:47.443Z,70.20
2018-12-20T15:26:19.083Z,70.20
2018-12-20T15:29:03.908Z,70.30
2018-12-20T15:31:42.335Z,70.20
2018-12-20T15:34:28.125Z,70.20
2018-12-20T15:37:00.757Z,70.20
2018-12-20T15:39:45.600Z,70.20
2018-12-20T15:42:17.197Z,70.20
2018-12-20T15:45:01.993Z,70.20
2018-12-20T15:47:33.461Z,70.20
2018-12-20T15:50:15.356Z,70.20
2018-12-20T15:52:46.966Z,70.20
2018-12-20T15:55:37.800Z,70.20
2018-12-20T15:58:09.745Z,70.20
2018-12-20T16:00:55.619Z,70.20
2018-12-20T16:03:27.405Z,70.20
2018-12-20T16:06:15.117Z,70.20
2018-12-20T16:08:46.820Z,70.40
2018-12-20T16:11:31.597Z,70.40
2018-12-20T16:14:02.995Z,70.50
2018-12-20T16:16:47.662Z,70.40
2018-12-20T16:19:19.091Z,70.40
2018-12-20T16:22:08.917Z,70.40
2018-12-20T16:24:40.671Z,70.60
2018-12-20T16:27:21.842Z,70.60
2018-12-20T16:29:53.741Z,70.60
2018-12-20T16:32:41.450Z,70.70
2018-12-20T16:35:13.050Z,70.80
2018-12-20T16:37:58.015Z,70.80
2018-12-20T16:40:29.803Z,70.80
2018-12-20T16:43:14.435Z,70.90
2018-12-20T16:45:45.875Z,70.90
2018-12-20T16:48:31.441Z,71.00
2018-12-20T16:51:02.860Z,71.00
2018-12-20T16:53:43.950Z,71.10
2018-12-20T16:56:15.402Z,71.10
2018-12-20T16:58:59.992Z,71.10
2018-12-20T17:01:32.490Z,71.40
2018-12-20T17:04:13.565Z,71.30
2018-12-20T17:06:45.225Z,71.30
2018-12-20T17:09:26.350Z,71.30
2018-12-20T17:11:57.931Z,71.30
2018-12-20T17:14:39.571Z,71.30
2018-12-20T17:17:10.989Z,71.30
2018-12-20T17:19:52.048Z,71.30
2018-12-20T17:22:23.492Z,71.30
2018-12-20T17:25:08.173Z,71.30
2018-12-20T17:27:39.693Z,71.20
2018-12-20T17:30:20.806Z,71.20
2018-12-20T17:32:52.294Z,71.30
2018-12-20T17:35:33.424Z,71.10
2018-12-20T17:38:04.820Z,71.20
2018-12-20T17:40:46.000Z,71.10
2018-12-20T17:43:18.646Z,71.10
2018-12-20T17:45:59.720Z,71.10
2018-12-20T17:48:31.188Z,71.10
2018-12-20T17:51:15.954Z,71.30
2018-12-20T17:53:47.468Z,71.30
2018-12-20T17:56:33.824Z,71.40
2018-12-20T17:59:05.540Z,71.50
2018-12-20T18:01:46.764Z,71.50
2018-12-20T18:04:19.404Z,71.50
2018-12-20T18:07:00.451Z,71.50
2018-12-20T18:09:32.079Z,71.60
2018-12-20T18:12:13.170Z,71.60
2018-12-20T18:14:44.692Z,71.50
2018-12-20T18:17:27.051Z,71.60
2018-12-20T18:19:58.627Z,71.60
2018-12-20T18:22:39.691Z,71.60
2018-12-20T18:25:11.240Z,71.60
2018-12-20T18:28:08.903Z,71.70
2018-12-20T18:30:40.529Z,71.60
2018-12-20T18:33:21.676Z,71.60
2018-12-20T18:35:53.228Z,71.70
2018-12-20T18:38:37.786Z,71.80
2018-12-20T18:41:09.321Z,71.80
2018-12-20T18:43:50.454Z,71.90
2018-12-20T18:46:22.216Z,71.90
2018-12-20T18:49:09.881Z,72.00
2018-12-20T18:51:41.522Z,72.00
2018-12-20T18:54:26.076Z,72.00
2018-12-20T18:56:57.684Z,71.90
2018-12-20T18:59:42.436Z,72.00
2018-12-20T19:02:14.117Z,72.00
2018-12-20T19:05:02.091Z,72.00
2018-12-20T19:07:33.700Z,72.00
2018-12-20T19:10:14.819Z,72.00
2018-12-20T19:12:46.323Z,72.00
2018-12-20T19:15:31.078Z,71.90
2018-12-20T19:18:02.467Z,71.90
2018-12-20T19:20:50.115Z,72.00
2018-12-20T19:23:22.000Z,71.90
2018-12-20T19:26:03.263Z,72.00
2018-12-20T19:28:34.893Z,71.80
2018-12-20T19:31:16.019Z,72.00
2018-12-20T19:33:47.527Z,72.00
2018-12-20T19:36:35.172Z,72.10
2018-12-20T19:39:11.541Z,72.10
2018-12-20T19:41:52.568Z,72.10
2018-12-20T19:44:24.367Z,72.00
2018-12-20T19:47:08.922Z,72.00
2018-12-20T19:53:07.096Z,71.90
2018-12-20T19:55:38.583Z,71.80
2018-12-20T19:58:19.641Z,71.80
2018-12-20T20:00:51.216Z,71.90
2018-12-20T20:03:32.377Z,71.90
2018-12-20T20:06:04.283Z,71.90
2018-12-20T20:08:54.598Z,71.80
2018-12-20T20:11:26.351Z,71.80
2018-12-20T20:14:07.726Z,72.50
2018-12-20T20:16:39.338Z,71.70
2018-12-20T20:19:20.639Z,71.60
2018-12-20T20:21:52.232Z,71.60
2018-12-20T20:24:33.605Z,71.70
2018-12-20T20:27:05.108Z,71.50
2018-12-20T20:29:49.736Z,71.50
2018-12-20T20:32:21.199Z,71.60
2018-12-20T20:35:06.840Z,71.60
2018-12-20T20:37:39.369Z,71.50
2018-12-20T20:40:27.000Z,72.20
2018-12-20T20:42:58.580Z,71.40
2018-12-20T20:45:43.310Z,71.40
2018-12-20T20:48:14.962Z,71.50
2018-12-20T20:50:59.579Z,71.70
2018-12-20T20:53:31.460Z,71.60
2018-12-20T20:56:16.252Z,71.80
2018-12-20T20:58:48.134Z,71.70
2018-12-20T21:01:33.019Z,71.60
2018-12-20T21:04:04.645Z,71.60
2018-12-20T21:06:47.166Z,71.60
2018-12-20T21:09:19.192Z,71.60
2018-12-20T21:12:00.306Z,71.50
2018-12-20T21:14:32.833Z,71.40
2018-12-20T21:17:23.652Z,71.40
2018-12-20T21:19:55.467Z,71.50
2018-12-20T21:22:36.558Z,71.60
2018-12-20T21:25:08.394Z,71.50
2018-12-20T21:27:49.754Z,71.50
2018-12-20T21:30:21.333Z,71.60
2018-12-20T21:33:02.501Z,71.70
2018-12-20T21:35:33.946Z,71.70
2018-12-20T21:51:25.655Z,71.40
2018-12-20T21:53:57.206Z,71.50
2018-12-20T21:56:44.805Z,71.50
2018-12-20T21:59:16.305Z,71.60
2018-12-20T22:01:57.377Z,71.60
2018-12-20T22:04:28.859Z,71.60
2018-12-20T22:07:13.678Z,71.60
2018-12-20T22:09:45.178Z,71.60
2018-12-20T22:12:29.871Z,71.50
2018-12-20T22:15:01.378Z,71.40
2018-12-20T22:17:46.081Z,71.40
2018-12-20T22:20:17.646Z,71.50
2018-12-20T22:35:59.505Z,71.50
2018-12-20T22:38:30.917Z,71.50
2018-12-20T22:41:17.545Z,71.50
2018-12-20T22:46:39.649Z,71.50
2018-12-20T22:49:11.116Z,71.50
2018-12-20T22:51:55.851Z,71.50
2018-12-20T22:54:27.491Z,71.50
2018-12-20T22:57:08.638Z,71.80
2018-12-20T22:59:40.170Z,71.50
2018-12-20T23:02:21.311Z,71.40
2018-12-20T23:04:53.173Z,71.40
2018-12-20T23:07:38.126Z,71.50
2018-12-20T23:10:10.005Z,71.40
2018-12-20T23:12:54.886Z,70.80
2018-12-20T23:15:26.266Z,71.50
2018-12-20T23:18:11.952Z,71.50
2018-12-20T23:20:43.427Z,71.50
2018-12-20T23:23:33.978Z,71.40
2018-12-20T23:26:05.910Z,71.40
2018-12-20T23:28:37.717Z,71.40
2018-12-20T23:31:22.295Z,71.40
2018-12-20T23:33:54.281Z,71.50
2018-12-20T23:36:35.548Z,71.50
2018-12-20T23:39:07.978Z,71.50
2018-12-20T23:41:49.298Z,71.50
2018-12-20T23:44:20.883Z,71.60
2018-12-20T23:47:02.044Z,71.50
2018-12-20T23:49:33.495Z,71.60
2018-12-20T23:52:14.658Z,71.60
2018-12-20T23:54:46.038Z,71.60
2018-12-20T23:57:30.601Z,71.50
